Time;durP1;ratioP1;P1;durP2;ratioP2;P2;SDS_P1;SDS_P2;PMS_P1;PMS_P2;Temp;Humidity;BMP_temperature;BMP_pressure;BME280_temperature;BME280_humidity;BME280_pressure;Samples;Min_cycle;Max_cycle;Signal;HPM_P1;HPM_P2
2021/07/23 00:00:06;;;;;;;;;9.75;8.75;;;;;28.79;41.17;101743.50;5077451;28;45370;-74
2021/07/23 00:02:31;;;;;;;;;9.50;7.75;;;;;28.87;40.77;101753.19;5058398;28;48007;-73
2021/07/23 00:04:56;;;;;;;;;9.25;8.75;;;;;28.89;41.28;101752.97;5077285;28;45417;-73
2021/07/23 00:07:22;;;;;;;;;11.50;10.25;;;;;28.61;41.04;101704.78;5077845;28;45367;-74
2021/07/23 00:09:47;;;;;;;;;8.50;8.25;;;;;28.91;40.98;101750.94;5064538;28;45636;-73
2021/07/23 00:12:13;;;;;;;;;11.00;11.00;;;;;28.92;40.84;101741.88;5077276;28;46058;-73
2021/07/23 00:14:38;;;;;;;;;9.75;9.50;;;;;28.93;41.31;101749.72;5075214;28;45531;-73
2021/07/23 00:17:03;;;;;;;;;8.25;8.25;;;;;28.89;40.53;101742.28;5076642;28;45346;-74
2021/07/23 00:19:30;;;;;;;;;9.00;6.25;;;;;28.94;40.54;101747.84;5076922;28;45549;-74
2021/07/23 15:17:33;;;;;;;;;11.00;9.50;;;;;29.48;38.80;100854.44;5073529;22;46765;-65
2021/07/23 15:19:59;;;;;;;;;11.25;10.50;;;;;29.45;39.24;100863.75;4934655;28;45633;-74
2021/07/23 15:22:26;;;;;;;;;8.75;8.75;;;;;29.50;39.25;100879.97;4933324;28;45721;-76
2021/07/23 15:24:51;;;;;;;;;10.75;9.25;;;;;29.49;39.10;100872.94;4934092;28;45570;-78
2021/07/23 15:27:16;;;;;;;;;12.25;12.25;;;;;29.51;38.87;100875.38;4934670;28;46623;-77
2021/07/23 15:29:42;;;;;;;;;8.75;7.75;;;;;29.43;38.84;100847.09;4935853;28;45360;-79
2021/07/23 15:32:09;;;;;;;;;9.50;9.00;;;;;29.50;39.08;100861.19;4938521;28;45398;-73
2021/07/23 15:34:39;;;;;;;;;11.75;9.50;;;;;29.53;38.98;100870.63;4942171;28;45658;-75
2021/07/23 15:37:04;;;;;;;;;10.00;10.00;;;;;29.40;39.33;100858.28;4935793;28;45663;-75
2021/07/23 15:39:30;;;;;;;;;7.67;7.00;;;;;29.54;39.67;100871.44;4938218;28;45381;-77
2021/07/23 15:41:55;;;;;;;;;9.50;9.50;;;;;29.50;39.54;100868.41;4939368;28;45559;-75
2021/07/23 15:44:21;;;;;;;;;8.25;8.25;;;;;29.47;39.20;100872.38;4939229;28;45677;-75
2021/07/23 15:46:46;;;;;;;;;8.75;8.75;;;;;29.52;39.79;100863.63;4939285;28;46849;-79
2021/07/23 15:49:11;;;;;;;;;12.75;11.00;;;;;29.52;39.58;100863.63;4937624;28;45259;-78
2021/07/23 15:51:37;;;;;;;;;9.75;8.75;;;;;29.45;39.82;100861.06;4938369;28;45439;-79
2021/07/23 15:54:02;;;;;;;;;9.75;9.00;;;;;29.47;39.44;100845.56;4938777;28;45462;-79
2021/07/23 15:56:27;;;;;;;;;10.00;10.00;;;;;29.51;39.50;100845.91;4938653;28;45981;-79
2021/07/23 15:58:53;;;;;;;;;10.25;9.50;;;;;29.56;39.51;100840.66;4939443;28;45294;-79
2021/07/23 16:01:18;;;;;;;;;9.75;9.50;;;;;29.37;39.60;100816.66;4938370;28;45661;-79
2021/07/23 16:03:43;;;;;;;;;12.75;9.50;;;;;29.50;39.65;100844.28;4938574;28;45525;-77
2021/07/23 16:06:10;;;;;;;;;10.75;10.75;;;;;29.58;39.65;100851.19;4942699;28;47368;-78
2021/07/23 16:08:35;;;;;;;;;12.50;10.75;;;;;29.25;39.45;100803.25;4952985;28;45285;-78
2021/07/23 16:11:01;;;;;;;;;9.00;9.00;;;;;29.58;39.64;100840.44;4970602;28;45542;-78
2021/07/23 16:13:26;;;;;;;;;12.00;10.25;;;;;29.58;39.98;100827.88;4943072;28;45563;-78
2021/07/23 16:15:52;;;;;;;;;11.75;10.25;;;;;29.33;39.56;100790.56;4942526;28;46313;-78
2021/07/23 16:18:17;;;;;;;;;12.25;12.25;;;;;29.58;39.39;100811.78;4942289;28;46117;-78
2021/07/23 16:20:43;;;;;;;;;11.25;11.25;;;;;29.58;39.81;100805.59;4940803;28;45471;-78
2021/07/23 16:23:08;;;;;;;;;14.50;10.25;;;;;29.58;39.44;100800.25;4941347;28;45552;-78
2021/07/23 16:25:33;;;;;;;;;11.75;9.75;;;;;29.57;39.86;100788.69;4951562;28;45507;-78
2021/07/23 16:27:58;;;;;;;;;11.75;9.50;;;;;29.48;39.54;100779.41;4946276;28;45378;-78
2021/07/23 16:30:24;;;;;;;;;8.75;8.25;;;;;29.50;39.89;100782.66;4942568;28;45459;-78
2021/07/23 16:32:49;;;;;;;;;10.00;8.50;;;;;29.52;40.31;100786.72;4940736;28;46382;-79
2021/07/23 16:35:16;;;;;;;;;10.75;10.00;;;;;29.57;39.73;100795.91;4939815;28;45376;-78
2021/07/23 16:37:42;;;;;;;;;10.00;9.00;;;;;29.46;40.00;100778.81;4943495;28;45466;-78
2021/07/23 16:40:08;;;;;;;;;10.75;10.75;;;;;29.45;40.36;100761.09;4942568;28;45325;-78
2021/07/23 16:42:33;;;;;;;;;11.00;11.00;;;;;29.45;39.81;100769.97;4942777;28;45584;-78
2021/07/23 16:45:00;;;;;;;;;11.50;11.50;;;;;29.57;40.03;100790.56;4940512;28;48356;-78
2021/07/23 16:47:30;;;;;;;;;8.75;8.75;;;;;29.57;40.36;100793.25;4938135;28;45492;-78
2021/07/23 16:49:55;;;;;;;;;10.50;10.50;;;;;29.55;39.76;100789.97;4949937;28;45294;-78
2021/07/23 16:52:21;;;;;;;;;12.25;12.25;;;;;29.58;40.05;100789.53;4942596;28;45401;-78
2021/07/23 16:54:48;;;;;;;;;11.50;11.00;;;;;29.35;39.97;100753.63;4942299;28;46044;-79
2021/07/23 16:57:13;;;;;;;;;13.75;11.00;;;;;29.56;40.28;100770.97;4942441;28;45397;-79
2021/07/23 16:59:39;;;;;;;;;12.25;11.00;;;;;29.51;40.26;100769.00;4939233;28;45317;-79
2021/07/23 17:02:04;;;;;;;;;12.75;11.25;;;;;29.58;39.65;100768.91;4941676;28;45523;-78
2021/07/23 17:04:29;;;;;;;;;11.75;11.75;;;;;29.50;39.82;100745.94;4942601;28;47469;-78
2021/07/23 17:06:55;;;;;;;;;11.75;10.75;;;;;29.59;40.18;100751.75;4942229;28;45478;-79
2021/07/23 17:09:20;;;;;;;;;8.75;8.75;;;;;29.59;39.77;100757.09;4942355;28;45408;-78
2021/07/23 17:11:46;;;;;;;;;9.75;9.00;;;;;29.60;39.69;100749.88;4938670;28;45500;-79
2021/07/23 17:14:12;;;;;;;;;11.00;9.50;;;;;29.60;40.17;100755.25;4939240;28;47593;-78
2021/07/23 17:16:38;;;;;;;;;14.00;10.00;;;;;29.53;40.43;100739.31;4942333;28;45408;-78
2021/07/23 17:19:03;;;;;;;;;11.75;8.75;;;;;29.56;40.27;100744.16;4942312;28;45475;-78
2021/07/23 17:21:32;;;;;;;;;9.00;9.00;;;;;29.59;40.36;100735.66;4942277;28;45507;-78
2021/07/23 17:23:57;;;;;;;;;8.00;8.00;;;;;29.59;39.88;100743.72;4941571;28;47188;-78
2021/07/23 17:26:23;;;;;;;;;10.25;7.25;;;;;29.59;40.36;100737.53;4938470;28;45377;-78
2021/07/23 17:28:48;;;;;;;;;13.50;11.00;;;;;29.50;40.08;100724.50;4941278;28;45322;-78
2021/07/23 17:31:13;;;;;;;;;14.50;13.00;;;;;29.59;40.08;100727.63;4942070;28;45603;-78
2021/07/23 17:33:39;;;;;;;;;9.00;9.00;;;;;29.60;40.48;100725.75;4939572;28;45989;-78
2021/07/23 17:36:06;;;;;;;;;10.75;9.00;;;;;29.35;40.33;100668.72;4941778;28;45457;-78
2021/07/23 17:38:32;;;;;;;;;12.75;10.25;;;;;29.61;40.01;100716.69;4936810;28;46051;-78
2021/07/23 17:40:57;;;;;;;;;11.00;11.00;;;;;29.52;40.24;100709.00;4942147;28;45468;-78
2021/07/23 17:43:23;;;;;;;;;10.00;10.00;;;;;29.54;40.42;100700.72;4941074;28;46045;-78
2021/07/23 17:48:23;;;;;;;;;10.50;10.50;;;;;29.38;39.98;100659.41;4941193;28;45415;-78
2021/07/23 17:50:48;;;;;;;;;8.75;8.75;;;;;29.57;40.35;100683.34;4938593;28;45455;-78
2021/07/23 17:53:14;;;;;;;;;11.25;10.00;;;;;29.56;40.23;100679.06;4938927;28;45371;-78
2021/07/23 17:55:39;;;;;;;;;9.50;9.50;;;;;29.58;40.23;100693.84;4940115;28;45388;-78
2021/07/23 17:58:04;;;;;;;;;10.50;10.50;;;;;29.58;40.37;100683.13;4941334;28;45457;-78
2021/07/23 18:00:30;;;;;;;;;11.00;11.00;;;;;29.58;40.33;100696.53;4941536;28;45390;-78
2021/07/23 18:02:57;;;;;;;;;11.75;10.00;;;;;29.49;40.14;100677.31;4939871;28;46380;-78
2021/07/23 18:05:24;;;;;;;;;11.50;11.50;;;;;29.58;40.16;100685.81;4937857;28;45463;-78
2021/07/23 18:07:51;;;;;;;;;11.25;10.50;;;;;29.55;40.38;100688.94;4941663;28;45371;-78
2021/07/23 18:10:17;;;;;;;;;11.00;10.75;;;;;29.54;40.31;100678.44;4941165;28;45735;-78
2021/07/23 18:12:43;;;;;;;;;11.00;11.00;;;;;29.54;40.11;100673.91;4940859;28;46299;-78
2021/07/23 18:15:09;;;;;;;;;9.00;9.00;;;;;29.59;40.38;100689.28;4941224;28;45531;-78
2021/07/23 18:17:36;;;;;;;;;12.00;9.00;;;;;29.59;40.75;100675.88;4937905;28;45175;-78
2021/07/23 18:20:01;;;;;;;;;13.00;10.50;;;;;29.56;40.34;100671.00;4940987;28;45384;-78
2021/07/23 18:22:26;;;;;;;;;14.50;10.00;;;;;29.59;40.27;100665.16;4941336;28;45944;-78
2021/07/23 18:24:52;;;;;;;;;14.50;11.00;;;;;29.60;39.80;100672.16;4941050;28;45694;-78
2021/07/23 18:27:17;;;;;;;;;16.75;12.00;;;;;29.60;40.07;100664.94;4940862;28;45304;-78
2021/07/23 18:29:42;;;;;;;;;11.00;11.00;;;;;29.52;39.85;100660.75;4938060;28;45590;-78
2021/07/23 18:32:08;;;;;;;;;13.25;13.00;;;;;29.59;40.22;100633.81;4967437;28;47253;-78
2021/07/23 18:34:33;;;;;;;;;10.00;10.00;;;;;29.48;40.04;100637.34;4940360;28;45288;-78
2021/07/23 18:36:58;;;;;;;;;12.00;10.50;;;;;29.51;40.48;100624.28;4941227;28;45519;-78
2021/07/23 18:39:24;;;;;;;;;9.00;9.00;;;;;29.59;40.67;100619.59;4940728;28;45307;-78
2021/07/23 18:41:49;;;;;;;;;9.75;9.25;;;;;29.54;40.29;100606.09;4936488;28;46106;-78
2021/07/23 18:44:14;;;;;;;;;10.25;9.00;;;;;29.52;41.02;100585.72;4935170;28;45772;-77
2021/07/23 18:46:40;;;;;;;;;13.50;13.50;;;;;29.52;40.61;100604.47;4939666;28;45418;-78
2021/07/23 18:49:05;;;;;;;;;11.00;11.00;;;;;29.46;40.52;100605.41;4940737;28;45430;-78
2021/07/23 18:51:31;;;;;;;;;12.75;11.00;;;;;29.58;40.64;100626.84;4937292;28;47664;-78
2021/07/23 18:53:57;;;;;;;;;13.75;12.50;;;;;29.33;40.44;100592.31;4940064;28;45387;-78
2021/07/23 18:56:22;;;;;;;;;10.50;10.50;;;;;29.59;40.26;100638.34;4937219;28;45392;-78
2021/07/23 18:58:47;;;;;;;;;9.75;9.75;;;;;29.48;40.80;100624.78;4941547;28;47242;-78
2021/07/23 19:01:13;;;;;;;;;11.50;11.50;;;;;29.51;40.61;100616.22;4941015;28;46219;-78
2021/07/23 19:03:38;;;;;;;;;10.25;9.75;;;;;29.59;40.22;100627.63;4940762;28;45364;-78
2021/07/23 19:06:04;;;;;;;;;11.00;10.00;;;;;29.48;40.21;100613.22;4955811;28;45318;-78
2021/07/23 19:08:29;;;;;;;;;11.75;10.00;;;;;29.58;40.55;100626.84;4936406;28;45773;-78
2021/07/23 19:10:54;;;;;;;;;10.50;10.50;;;;;29.57;40.23;100627.88;4939409;28;46427;-78
2021/07/23 19:13:20;;;;;;;;;10.25;10.25;;;;;29.57;40.71;100627.88;4940577;28;45432;-78
2021/07/23 19:15:45;;;;;;;;;11.50;10.25;;;;;29.57;40.76;100632.41;4940597;28;46420;-78
2021/07/23 19:18:10;;;;;;;;;12.50;12.25;;;;;29.49;40.66;100623.69;4940571;28;45406;-78
2021/07/23 19:20:37;;;;;;;;;9.75;8.25;;;;;29.31;40.08;100589.84;4937274;28;46041;-78
2021/07/23 19:23:02;;;;;;;;;12.75;12.75;;;;;29.56;40.54;100625.44;4940364;28;45360;-78
2021/07/23 19:25:28;;;;;;;;;9.75;9.75;;;;;29.50;40.33;100628.03;4940317;28;45519;-78
2021/07/23 19:27:53;;;;;;;;;16.75;12.25;;;;;29.49;40.26;100639.78;4940474;28;45278;-78
2021/07/23 19:30:19;;;;;;;;;12.25;12.25;;;;;29.56;40.38;100626.25;4940111;28;45392;-79
2021/07/23 19:32:47;;;;;;;;;11.00;9.50;;;;;29.44;40.08;100604.84;4938175;28;45528;-78
2021/07/23 19:35:13;;;;;;;;;11.00;11.00;;;;;29.57;40.74;100627.06;4938480;28;45361;-77
2021/07/23 19:37:38;;;;;;;;;11.75;11.75;;;;;29.49;40.32;100620.19;4945503;28;45476;-78
2021/07/23 19:40:04;;;;;;;;;9.00;9.00;;;;;29.52;40.65;100612.50;4939755;28;47157;-77
2021/07/23 19:42:31;;;;;;;;;11.00;9.25;;;;;29.50;40.76;100603.09;4940056;28;45515;-77
2021/07/23 19:44:57;;;;;;;;;12.50;11.25;;;;;29.51;40.78;100616.22;4939667;28;45559;-79
2021/07/23 19:47:22;;;;;;;;;10.00;10.00;;;;;29.51;40.45;100615.41;4936045;28;45879;-79
2021/07/23 19:49:47;;;;;;;;;14.50;13.00;;;;;29.56;40.33;100634.28;4940668;28;45528;-79
2021/07/23 19:52:13;;;;;;;;;10.50;10.50;;;;;29.55;40.18;100616.59;4940767;28;49434;-78
2021/07/23 19:54:38;;;;;;;;;10.00;10.00;;;;;29.45;40.00;100602.97;4943128;28;45234;-78
2021/07/23 19:57:04;;;;;;;;;12.00;10.75;;;;;29.54;40.23;100606.91;4943445;28;45614;-78
2021/07/23 19:59:33;;;;;;;;;11.25;11.25;;;;;29.55;40.33;100618.44;4939382;28;46002;-79
2021/07/23 20:01:59;;;;;;;;;14.25;12.00;;;;;29.53;40.45;100621.38;4951252;28;45420;-78
2021/07/23 20:04:24;;;;;;;;;11.00;10.00;;;;;29.56;40.63;100622.78;4943298;28;45540;-78
2021/07/23 20:06:49;;;;;;;;;11.75;11.75;;;;;29.44;40.20;100620.09;4943178;28;45390;-78
2021/07/23 20:09:15;;;;;;;;;13.75;12.75;;;;;29.49;40.67;100621.03;4941092;28;46134;-78
2021/07/23 20:11:40;;;;;;;;;11.75;10.00;;;;;29.52;39.88;100631.28;4940254;28;45484;-78
2021/07/23 20:14:05;;;;;;;;;13.25;11.50;;;;;29.55;40.09;100621.13;4942092;28;45836;-78
2021/07/23 20:16:31;;;;;;;;;11.50;9.75;;;;;29.50;40.46;100628.03;4940697;28;45446;-79
2021/07/23 20:18:57;;;;;;;;;10.25;9.00;;;;;29.57;40.48;100614.47;4943230;28;45440;-79
2021/07/23 20:21:22;;;;;;;;;12.75;12.25;;;;;29.48;40.62;100606.00;4942954;28;45345;-79
2021/07/23 20:23:48;;;;;;;;;13.00;12.50;;;;;29.55;40.08;100613.09;4940901;28;45416;-78
2021/07/23 20:26:13;;;;;;;;;12.00;10.75;;;;;29.45;40.34;100594.94;4940319;28;45343;-78
2021/07/23 20:28:39;;;;;;;;;11.75;11.75;;;;;29.44;40.27;100594.13;4943423;28;45581;-79
2021/07/23 20:31:05;;;;;;;;;14.25;12.50;;;;;29.55;40.11;100592.47;4942463;28;45472;-78
2021/07/23 20:33:30;;;;;;;;;10.00;10.00;;;;;29.55;40.79;100600.50;4942968;28;45356;-78
2021/07/23 20:35:55;;;;;;;;;12.25;11.50;;;;;29.52;39.95;100595.63;4940281;28;45463;-79
2021/07/23 20:38:21;;;;;;;;;12.00;11.00;;;;;29.50;40.28;100600.41;4937432;28;46408;-78
2021/07/23 20:40:47;;;;;;;;;13.00;11.00;;;;;29.36;40.32;100584.59;4943288;28;45479;-78
2021/07/23 20:43:13;;;;;;;;;10.75;10.75;;;;;29.54;40.53;100604.22;4950627;28;45314;-78
2021/07/23 20:45:38;;;;;;;;;12.50;12.00;;;;;29.54;40.26;100606.91;4948272;28;45508;-78
2021/07/23 20:48:03;;;;;;;;;11.00;11.00;;;;;29.55;40.25;100610.41;4942401;28;47157;-78
2021/07/23 20:50:31;;;;;;;;;13.00;10.25;;;;;29.48;39.99;100589.13;4938378;28;45428;-78
2021/07/23 20:52:56;;;;;;;;;12.00;10.50;;;;;29.47;39.94;100593.66;4954170;28;45251;-77
2021/07/23 20:55:21;;;;;;;;;11.75;11.50;;;;;29.45;40.71;100582.38;4942906;28;45401;-79
2021/07/23 20:57:47;;;;;;;;;13.75;12.25;;;;;29.46;40.84;100580.50;4941943;28;46792;-78
2021/07/23 21:00:12;;;;;;;;;11.00;10.25;;;;;29.45;39.87;100590.41;4942336;28;45314;-79
2021/07/23 21:02:37;;;;;;;;;13.00;11.00;;;;;29.45;40.09;100568.97;4939146;28;45270;-79
2021/07/23 21:05:03;;;;;;;;;12.50;12.50;;;;;29.49;40.44;100578.16;4941842;28;45528;-76
2021/07/23 21:07:28;;;;;;;;;13.00;12.00;;;;;29.54;40.51;100571.25;4941507;28;45540;-77
2021/07/23 21:09:54;;;;;;;;;11.25;11.00;;;;;29.40;40.61;100539.38;4941851;28;45582;-77
2021/07/23 21:12:22;;;;;;;;;12.25;11.50;;;;;29.46;40.20;100557.19;4942336;28;45485;-77
2021/07/23 21:14:48;;;;;;;;;13.00;12.00;;;;;29.51;40.43;100554.59;4940458;28;45495;-79
2021/07/23 21:17:13;;;;;;;;;12.25;12.25;;;;;29.51;39.98;100557.28;4939873;28;45466;-79
2021/07/23 21:19:39;;;;;;;;;17.00;12.50;;;;;29.54;40.51;100566.69;4942390;28;46291;-79
2021/07/23 21:22:05;;;;;;;;;15.25;15.25;;;;;29.50;40.37;100558.34;4942277;28;45382;-78
2021/07/23 21:24:30;;;;;;;;;12.25;11.75;;;;;29.47;40.27;100540.06;4937839;28;46091;-79
2021/07/23 21:26:55;;;;;;;;;11.50;10.50;;;;;29.46;40.46;100551.03;4937845;28;45426;-78
2021/07/23 21:29:21;;;;;;;;;14.25;13.00;;;;;29.36;39.92;100522.13;4937833;28;45482;-78
2021/07/23 21:31:46;;;;;;;;;12.00;12.00;;;;;29.49;40.39;100537.13;4938536;28;45873;-78
2021/07/23 21:34:12;;;;;;;;;16.25;14.25;;;;;29.54;39.94;100531.84;4937350;28;45444;-78
2021/07/23 21:36:37;;;;;;;;;13.00;12.75;;;;;29.50;39.84;100536.09;4937479;28;46025;-78
2021/07/23 21:39:03;;;;;;;;;12.75;12.00;;;;;29.50;40.57;100555.66;4937713;28;45383;-78
2021/07/23 21:41:29;;;;;;;;;14.00;14.00;;;;;29.54;40.78;100569.38;4929926;28;45441;-79
2021/07/23 21:43:54;;;;;;;;;13.50;13.00;;;;;29.54;40.17;100576.59;4942401;28;45370;-78
2021/07/23 21:46:20;;;;;;;;;13.25;12.75;;;;;29.42;40.50;100569.44;4940792;28;45489;-79
2021/07/23 21:48:46;;;;;;;;;14.00;12.50;;;;;29.39;40.58;100577.94;4941079;28;45880;-78
2021/07/23 21:51:11;;;;;;;;;13.50;11.00;;;;;29.49;40.07;100594.22;4941762;28;45412;-78
2021/07/23 21:53:36;;;;;;;;;12.75;11.25;;;;;29.50;40.31;100590.50;4938465;28;45378;-79
2021/07/23 21:56:02;;;;;;;;;12.00;12.00;;;;;29.39;40.07;100578.75;4941184;28;45992;-78
2021/07/23 21:58:27;;;;;;;;;12.75;12.75;;;;;29.48;40.07;100595.28;4941809;28;45552;-78
2021/07/23 22:00:52;;;;;;;;;13.50;13.50;;;;;29.48;40.38;100607.88;4939169;28;45484;-79
2021/07/23 22:03:18;;;;;;;;;13.25;12.25;;;;;29.49;40.14;100596.09;4941322;28;45366;-78
2021/07/23 22:05:43;;;;;;;;;12.00;12.00;;;;;29.54;40.21;100606.09;4938850;28;45890;-78
2021/07/23 22:08:08;;;;;;;;;13.00;12.50;;;;;29.51;40.50;100613.56;4940003;28;45302;-78
2021/07/23 22:10:34;;;;;;;;;10.25;9.50;;;;;29.37;40.10;100580.06;4951226;28;45202;-78
2021/07/23 22:12:59;;;;;;;;;13.75;13.75;;;;;29.48;39.92;100595.28;4944412;28;45464;-78
2021/07/23 22:15:24;;;;;;;;;14.00;12.25;;;;;29.50;40.19;100605.75;4940847;28;46496;-78
2021/07/23 22:17:50;;;;;;;;;13.50;12.75;;;;;29.46;40.28;100609.97;4939139;28;45496;-79
2021/07/23 22:20:16;;;;;;;;;14.25;14.25;;;;;29.44;40.09;100607.53;4938988;28;45662;-78
2021/07/23 22:22:41;;;;;;;;;13.50;12.00;;;;;29.41;39.97;100599.94;4942021;28;45308;-78
2021/07/23 22:25:07;;;;;;;;;11.25;11.25;;;;;29.53;40.47;100618.69;4940610;28;45294;-78
2021/07/23 22:27:32;;;;;;;;;12.25;12.25;;;;;29.46;40.18;100610.78;4940718;28;45255;-79
2021/07/23 22:29:58;;;;;;;;;12.75;11.25;;;;;29.54;39.77;100608.75;4940662;28;45212;-77
2021/07/23 22:32:24;;;;;;;;;13.00;12.50;;;;;29.52;40.52;100609.00;4937316;28;45621;-78
2021/07/23 22:34:49;;;;;;;;;11.50;11.50;;;;;29.52;40.39;100604.47;4941724;28;45369;-78
2021/07/23 22:37:14;;;;;;;;;12.50;12.25;;;;;29.52;39.84;100607.16;4947721;28;51545;-78
2021/07/23 22:39:40;;;;;;;;;11.50;11.50;;;;;29.49;39.74;100593.41;4959483;28;45575;-78
2021/07/23 22:42:06;;;;;;;;;11.00;11.00;;;;;29.46;39.98;100594.69;4940288;28;45413;-78
2021/07/23 22:44:32;;;;;;;;;10.50;9.00;;;;;29.44;40.40;100579.91;4936740;28;45350;-78
2021/07/23 22:46:58;;;;;;;;;12.25;12.25;;;;;29.53;40.15;100597.25;4941124;28;45491;-78
2021/07/23 22:49:24;;;;;;;;;12.25;11.25;;;;;29.50;40.79;100593.19;4940950;28;45355;-79
2021/07/23 22:51:49;;;;;;;;;13.00;13.00;;;;;29.54;40.74;100588.16;4940616;28;45302;-78
2021/07/23 22:54:14;;;;;;;;;12.00;12.00;;;;;29.51;40.63;100584.06;4940523;28;46361;-79
2021/07/23 22:56:40;;;;;;;;;14.25;13.00;;;;;29.56;40.44;100579.88;4937795;28;45403;-78
2021/07/23 22:59:05;;;;;;;;;14.50;13.25;;;;;29.50;40.20;100569.06;4939999;28;45508;-78
2021/07/23 23:01:30;;;;;;;;;13.50;13.25;;;;;29.55;40.39;100571.03;4940850;28;45347;-78
2021/07/23 23:03:56;;;;;;;;;13.25;12.25;;;;;29.46;40.04;100551.81;4940143;28;45484;-78
2021/07/23 23:06:21;;;;;;;;;10.50;10.50;;;;;29.45;40.91;100554.75;4940162;28;45740;-78
2021/07/23 23:08:46;;;;;;;;;11.50;11.50;;;;;29.43;39.47;100549.63;4937749;28;45417;-77
2021/07/23 23:11:12;;;;;;;;;15.75;13.25;;;;;29.32;38.59;100532.53;4934490;28;45405;-76
2021/07/23 23:13:37;;;;;;;;;14.50;14.50;;;;;29.21;38.82;100533.38;4935536;28;47070;-76
2021/07/23 23:16:03;;;;;;;;;17.25;14.50;;;;;29.22;38.27;100546.56;4934076;28;45279;-75
2021/07/23 23:18:28;;;;;;;;;16.25;16.25;;;;;29.11;38.90;100542.84;4935306;28;45486;-76
2021/07/23 23:20:54;;;;;;;;;16.25;15.25;;;;;28.94;38.43;100529.31;4935203;28;45472;-76
2021/07/23 23:23:19;;;;;;;;;12.25;12.25;;;;;29.00;38.51;100559.69;4934817;28;46208;-75
2021/07/23 23:25:45;;;;;;;;;15.75;14.00;;;;;28.95;38.39;100600.56;4935920;28;45449;-76
2021/07/23 23:28:10;;;;;;;;;15.25;14.25;;;;;28.77;38.36;100582.78;4937910;28;45436;-75
2021/07/23 23:30:35;;;;;;;;;13.75;13.25;;;;;28.74;38.79;100597.44;4937261;28;45453;-74
2021/07/23 23:33:06;;;;;;;;;16.75;15.75;;;;;28.70;38.87;100623.84;4938093;28;45380;-76
2021/07/23 23:35:39;;;;;;;;;16.75;14.00;;;;;28.70;38.38;100615.81;4938421;28;45354;-75
2021/07/23 23:38:05;;;;;;;;;15.00;13.25;;;;;28.66;38.33;100622.69;4938682;28;45338;-75
2021/07/23 23:40:30;;;;;;;;;13.75;13.00;;;;;28.62;38.89;100629.56;4949359;28;45436;-75
2021/07/23 23:42:55;;;;;;;;;16.25;13.50;;;;;28.54;39.00;100621.84;4934518;28;45779;-76
2021/07/23 23:45:22;;;;;;;;;12.75;12.75;;;;;28.54;39.00;100624.53;4936710;28;45613;-75
2021/07/23 23:47:47;;;;;;;;;12.50;12.50;;;;;28.48;38.40;100626.25;4935605;28;45529;-75
2021/07/23 23:50:13;;;;;;;;;14.75;14.00;;;;;28.46;38.62;100621.16;4934896;28;45404;-75
2021/07/23 23:52:39;;;;;;;;;17.75;15.50;;;;;28.38;39.23;100606.22;4932737;28;45979;-76
2021/07/23 23:55:06;;;;;;;;;15.25;12.50;;;;;28.38;38.77;100610.75;4937439;28;45569;-76
2021/07/23 23:57:32;;;;;;;;;13.25;11.75;;;;;28.40;39.20;100614.81;4937873;28;45464;-76
2021/07/23 23:59:57;;;;;;;;;15.25;14.25;;;;;28.28;39.42;100598.75;4952395;28;45442;-75
